createdAt,value
2023-05-06T04:23:02.845Z,21.52
2023-05-06T04:25:30.475Z,25.73
2023-05-06T04:27:57.898Z,29.52
2023-05-06T04:30:25.433Z,14.57
2023-05-06T04:32:53.229Z,19.05
2023-05-06T04:35:21.048Z,17.92
2023-05-06T04:40:26.526Z,21.30
2023-05-06T04:42:54.572Z,16.65
2023-05-06T04:45:26.503Z,17.98
2023-05-06T04:47:55.385Z,20.17
2023-05-06T04:50:22.901Z,21.77
2023-05-06T04:52:50.280Z,24.20
2023-05-06T04:55:19.537Z,13.80
2023-05-06T04:57:52.185Z,20.35
2023-05-06T05:00:19.832Z,26.17
2023-05-06T05:05:35.151Z,16.60
2023-05-06T05:08:05.197Z,27.25
2023-05-06T05:10:35.955Z,24.02
2023-05-06T05:13:03.479Z,21.05
2023-05-06T05:15:31.377Z,18.67
2023-05-06T05:17:59.062Z,22.85
2023-05-06T05:20:27.046Z,17.42
2023-05-06T05:22:54.450Z,19.10
2023-05-06T05:25:40.605Z,17.88
2023-05-06T05:30:37.407Z,15.68
2023-05-06T05:33:05.630Z,21.63
2023-05-06T05:38:02.092Z,26.25
2023-05-06T05:40:29.529Z,13.23
2023-05-06T05:42:56.961Z,21.08
2023-05-06T05:45:31.188Z,16.30
2023-05-06T05:47:59.362Z,12.32
2023-05-06T05:52:55.856Z,21.80
2023-05-06T05:55:23.337Z,20.83
2023-05-06T05:57:51.828Z,16.65
2023-05-06T06:00:21.582Z,23.38
2023-05-06T06:02:55.619Z,17.00
2023-05-06T06:05:23.099Z,13.68
2023-05-06T06:07:51.798Z,14.50
2023-05-06T06:10:19.305Z,12.85
2023-05-06T06:13:06.396Z,18.42
2023-05-06T06:15:34.188Z,13.40
2023-05-06T06:18:02.415Z,11.65
2023-05-06T06:20:30.756Z,16.20
2023-05-06T06:22:59.067Z,11.65
2023-05-06T06:27:55.887Z,11.40
2023-05-06T06:30:29.752Z,15.02
2023-05-06T06:35:27.153Z,17.80
2023-05-06T06:37:55.246Z,13.55
2023-05-06T06:40:23.053Z,15.48
2023-05-06T06:42:51.580Z,23.20
2023-05-06T06:45:32.148Z,21.70
2023-05-06T06:47:59.535Z,14.82
2023-05-06T06:50:27.236Z,16.33
2023-05-06T06:52:54.522Z,18.02
2023-05-06T06:55:22.005Z,18.02
2023-05-06T06:57:49.496Z,10.75
2023-05-06T07:00:17.093Z,13.18
2023-05-06T07:05:12.233Z,11.80
2023-05-06T07:07:39.909Z,15.85
2023-05-06T07:10:07.878Z,15.73
2023-05-06T07:12:35.493Z,10.10
2023-05-06T07:15:07.139Z,18.38
2023-05-06T07:17:34.668Z,12.60
2023-05-06T07:20:02.074Z,11.25
2023-05-06T07:22:31.670Z,19.33
2023-05-06T07:24:59.467Z,7.93
2023-05-06T07:27:27.697Z,10.82
2023-05-06T07:29:55.119Z,13.10
2023-05-06T07:32:22.763Z,18.38
2023-05-06T07:34:50.208Z,12.05
2023-05-06T07:37:17.518Z,10.40
2023-05-06T07:42:13.447Z,12.32
2023-05-06T07:44:40.967Z,10.00
2023-05-06T07:49:35.900Z,12.30
2023-05-06T07:54:32.005Z,10.52
2023-05-06T07:57:18.152Z,10.65
2023-05-06T07:59:50.278Z,12.98
2023-05-06T08:02:17.908Z,11.95
2023-05-06T08:04:47.278Z,11.70
2023-05-06T08:07:16.340Z,12.82
2023-05-06T08:09:43.684Z,12.25
2023-05-06T08:12:11.240Z,10.73
2023-05-06T08:14:57.199Z,12.55
2023-05-06T08:19:51.737Z,12.95
2023-05-06T08:22:19.225Z,14.68
2023-05-06T08:24:46.556Z,16.45
2023-05-06T08:27:13.918Z,10.00
2023-05-06T08:29:41.261Z,20.50
2023-05-06T08:32:08.672Z,13.45
2023-05-06T08:34:36.283Z,15.70
2023-05-06T08:39:31.632Z,13.80
2023-05-06T08:42:02.277Z,15.80
2023-05-06T08:44:29.929Z,10.48
2023-05-06T08:47:16.002Z,16.45
2023-05-06T08:49:43.682Z,17.63
2023-05-06T08:52:12.125Z,16.05
2023-05-06T08:54:40.867Z,17.15
2023-05-06T08:57:12.584Z,15.60
2023-05-06T08:59:40.463Z,13.65
2023-05-06T09:02:08.786Z,18.38
2023-05-06T09:04:37.541Z,19.30
2023-05-06T09:07:04.827Z,10.40
2023-05-06T09:09:32.290Z,13.02
2023-05-06T09:12:02.094Z,20.23
2023-05-06T09:14:29.633Z,15.00
2023-05-06T09:19:41.566Z,18.58
2023-05-06T09:24:37.639Z,16.02
2023-05-06T09:27:05.137Z,10.57
2023-05-06T09:32:06.081Z,15.00
2023-05-06T09:34:33.773Z,18.13
2023-05-06T09:37:01.514Z,14.43
2023-05-06T09:39:28.912Z,18.13
2023-05-06T09:41:56.817Z,13.43
2023-05-06T09:44:24.818Z,13.15
2023-05-06T09:46:52.492Z,18.70
2023-05-06T09:49:19.885Z,15.95
2023-05-06T09:54:19.650Z,12.75
2023-05-06T09:56:48.246Z,16.25
2023-05-06T09:59:18.700Z,21.73
2023-05-06T10:01:46.232Z,15.60
2023-05-06T10:04:16.049Z,20.00
2023-05-06T10:06:44.444Z,19.13
2023-05-06T10:09:12.642Z,20.30
2023-05-06T10:11:40.738Z,15.50
2023-05-06T10:14:09.456Z,19.50
2023-05-06T10:16:37.904Z,18.20
2023-05-06T10:19:07.688Z,22.10
2023-05-06T10:22:07.353Z,13.75
2023-05-06T10:25:03.308Z,22.58
2023-05-06T10:27:33.270Z,17.85
2023-05-06T10:30:01.209Z,24.77
2023-05-06T10:32:33.461Z,27.05
2023-05-06T10:35:18.119Z,14.43
2023-05-06T10:37:49.925Z,17.58
2023-05-06T10:40:17.583Z,19.60
2023-05-06T10:42:45.081Z,21.35
2023-05-06T10:47:56.824Z,13.85
2023-05-06T10:50:26.727Z,14.73
2023-05-06T10:53:01.907Z,20.13
2023-05-06T10:55:36.212Z,18.38
2023-05-06T10:58:12.599Z,18.58
2023-05-06T11:03:24.563Z,10.70
2023-05-06T11:05:52.793Z,15.00
2023-05-06T11:08:25.562Z,14.90
2023-05-06T11:10:56.019Z,9.20
2023-05-06T11:13:24.903Z,12.88
2023-05-06T11:15:52.887Z,10.98
2023-05-06T11:18:33.860Z,8.52
2023-05-06T11:21:03.799Z,8.85
2023-05-06T11:23:47.244Z,14.05
2023-05-06T11:26:34.426Z,9.40
2023-05-06T11:29:04.319Z,7.55
2023-05-06T11:31:39.117Z,10.80
2023-05-06T11:34:12.178Z,15.55
2023-05-06T11:36:53.710Z,11.50
2023-05-06T11:39:21.503Z,12.93
2023-05-06T11:41:48.976Z,10.68
2023-05-06T11:44:31.239Z,17.65
2023-05-06T11:49:53.565Z,18.13
2023-05-06T11:52:21.293Z,19.73
2023-05-06T11:54:51.000Z,21.58
2023-05-06T11:57:20.444Z,14.05
2023-05-06T11:59:53.530Z,16.85
2023-05-06T12:02:21.854Z,20.17
2023-05-06T12:04:53.539Z,13.27
2023-05-06T12:07:21.055Z,15.73
2023-05-06T12:09:50.240Z,14.38
2023-05-06T12:12:24.091Z,16.23
2023-05-06T12:17:20.417Z,8.40
2023-05-06T12:19:47.906Z,12.15
2023-05-06T12:22:24.882Z,12.27
2023-05-06T12:24:52.819Z,12.95
2023-05-06T12:27:33.959Z,15.88
2023-05-06T12:30:01.848Z,15.02
2023-05-06T12:32:33.041Z,20.33
2023-05-06T12:35:19.709Z,17.33
2023-05-06T12:37:47.373Z,15.20
2023-05-06T12:40:18.420Z,13.13
2023-05-06T12:42:45.850Z,7.25
2023-05-06T12:45:15.053Z,15.60
2023-05-06T12:47:53.943Z,9.82
2023-05-06T12:50:36.705Z,11.00
2023-05-06T12:53:05.448Z,12.65
2023-05-06T12:55:40.377Z,10.50
2023-05-06T12:58:19.253Z,20.00
2023-05-06T13:00:46.854Z,10.93
2023-05-06T13:03:14.395Z,12.75
2023-05-06T13:05:42.285Z,12.05
2023-05-06T13:08:09.600Z,12.60
2023-05-06T13:10:37.013Z,13.90
2023-05-06T13:13:04.404Z,12.25
2023-05-06T13:15:32.110Z,14.40
2023-05-06T13:17:59.446Z,13.02
2023-05-06T13:20:27.627Z,8.77
2023-05-06T13:22:55.378Z,8.75
2023-05-06T13:25:23.562Z,11.55
2023-05-06T13:27:50.997Z,8.65
2023-05-06T13:30:18.335Z,12.93
2023-05-06T13:32:46.989Z,15.52
2023-05-06T13:35:14.420Z,11.32
2023-05-06T13:37:41.813Z,14.52
2023-05-06T13:40:10.210Z,10.45
2023-05-06T13:42:37.585Z,8.43
2023-05-06T13:45:05.417Z,9.10
2023-05-06T13:47:33.108Z,13.57
2023-05-06T13:52:46.395Z,9.02
2023-05-06T13:55:13.855Z,8.23
2023-05-06T13:57:41.152Z,11.27
2023-05-06T14:00:11.120Z,14.65
2023-05-06T14:02:38.600Z,9.32
2023-05-06T14:05:06.548Z,12.80
2023-05-06T14:07:33.904Z,12.18
2023-05-06T14:10:01.284Z,11.48
2023-05-06T14:12:31.541Z,12.15
2023-05-06T14:20:10.971Z,9.35
2023-05-06T14:22:41.690Z,11.43
2023-05-06T14:25:09.797Z,13.40
2023-05-06T14:27:37.349Z,13.25
2023-05-06T14:30:08.510Z,10.65
2023-05-06T14:32:37.358Z,16.92
2023-05-06T14:35:05.605Z,13.52
2023-05-06T14:37:33.253Z,20.17
2023-05-06T14:40:00.646Z,18.70
2023-05-06T14:42:28.083Z,14.10
2023-05-06T14:44:55.388Z,17.30
2023-05-06T14:47:23.854Z,14.90
2023-05-06T14:49:51.198Z,18.10
2023-05-06T14:52:18.645Z,15.13
2023-05-06T14:54:45.992Z,19.02
2023-05-06T14:57:13.399Z,20.70
2023-05-06T14:59:40.709Z,15.77
2023-05-06T15:02:09.942Z,12.40
2023-05-06T15:04:56.069Z,12.68
2023-05-06T15:07:23.437Z,13.05
2023-05-06T15:09:50.799Z,14.93
2023-05-06T15:12:18.301Z,14.75
2023-05-06T15:17:13.715Z,9.95
2023-05-06T15:19:41.176Z,11.27
2023-05-06T15:22:08.422Z,12.48
2023-05-06T15:24:36.209Z,12.45
2023-05-06T15:27:03.644Z,10.65
2023-05-06T15:29:31.358Z,14.40
2023-05-06T15:31:58.840Z,16.17
2023-05-06T15:37:12.350Z,9.63
2023-05-06T15:39:39.784Z,14.20
2023-05-06T15:42:07.168Z,11.30
2023-05-06T15:44:34.563Z,9.50
2023-05-06T15:47:01.816Z,14.38
2023-05-06T15:52:01.094Z,16.80
2023-05-06T15:54:29.153Z,15.52
2023-05-06T15:56:57.090Z,15.98
2023-05-06T15:59:24.356Z,12.38
2023-05-06T16:02:25.335Z,17.52
2023-05-06T16:04:39.434Z,15.60
2023-05-06T16:07:07.867Z,13.27
2023-05-06T16:09:35.299Z,14.70
2023-05-06T16:12:02.782Z,15.48
2023-05-06T16:14:30.017Z,12.13
2023-05-06T16:16:58.761Z,8.93
2023-05-06T16:19:26.439Z,8.60
2023-05-06T16:24:21.985Z,14.73
2023-05-06T16:26:49.384Z,11.35
2023-05-06T16:29:19.324Z,11.05
2023-05-06T16:31:50.102Z,9.65
2023-05-06T16:34:17.554Z,8.20
2023-05-06T16:36:44.948Z,9.40
2023-05-06T16:39:12.313Z,10.50
2023-05-06T16:41:58.408Z,11.57
2023-05-06T16:44:25.778Z,9.00
2023-05-06T16:46:53.179Z,13.65
2023-05-06T16:49:21.371Z,11.18
2023-05-06T16:51:48.666Z,12.43
2023-05-06T16:54:16.048Z,14.95
2023-05-06T16:56:51.309Z,10.93
2023-05-06T16:59:22.213Z,16.55
2023-05-06T17:01:50.631Z,16.23
2023-05-06T17:04:18.050Z,14.02
2023-05-06T17:06:45.456Z,15.35
2023-05-06T17:09:12.896Z,15.43
2023-05-06T17:11:40.210Z,13.80
2023-05-06T17:14:07.788Z,13.32
2023-05-06T17:16:35.325Z,14.93
2023-05-06T17:19:02.713Z,11.48
2023-05-06T17:21:30.183Z,13.63
2023-05-06T17:23:58.970Z,8.88
2023-05-06T17:26:26.604Z,9.88
2023-05-06T17:28:54.239Z,10.02
2023-05-06T17:31:21.885Z,15.93
2023-05-06T17:38:46.710Z,9.10
2023-05-06T17:43:41.744Z,12.48
2023-05-06T17:48:37.227Z,11.65
2023-05-06T17:51:04.656Z,12.30
2023-05-06T17:53:34.308Z,11.20
2023-05-06T17:56:01.720Z,7.68
2023-05-06T17:58:29.231Z,9.85
2023-05-06T18:00:57.665Z,9.90
2023-05-06T18:03:25.300Z,14.85
2023-05-06T18:05:52.784Z,12.60
2023-05-06T18:08:20.069Z,14.27
2023-05-06T18:10:47.460Z,14.10
2023-05-06T18:13:14.904Z,11.43
2023-05-06T18:15:43.186Z,14.48
2023-05-06T18:18:10.977Z,8.68
2023-05-06T18:20:38.508Z,11.95
2023-05-06T18:23:08.489Z,10.73
2023-05-06T18:25:36.134Z,8.52
2023-05-06T18:28:05.270Z,16.15
2023-05-06T18:30:32.718Z,7.85
2023-05-06T18:33:00.122Z,10.10
2023-05-06T18:35:27.523Z,19.10
2023-05-06T18:37:54.897Z,12.65
2023-05-06T18:40:22.414Z,10.32
2023-05-06T18:42:49.879Z,8.93
2023-05-06T18:45:17.342Z,10.93
2023-05-06T18:47:44.746Z,13.80
2023-05-06T18:50:12.262Z,8.85
2023-05-06T18:52:39.630Z,5.57
2023-05-06T18:55:07.790Z,5.57
2023-05-06T18:57:35.350Z,5.47
2023-05-06T19:00:02.724Z,7.07
2023-05-06T19:02:33.167Z,7.47
2023-05-06T19:05:00.922Z,8.52
2023-05-06T19:07:28.330Z,8.77
2023-05-06T19:09:55.658Z,4.18
2023-05-06T19:12:23.618Z,3.67
2023-05-06T19:22:15.772Z,3.67
2023-05-06T19:24:43.178Z,2.55
2023-05-06T19:27:11.087Z,3.88
2023-05-06T19:29:38.399Z,4.70
2023-05-06T19:32:06.157Z,1.90
2023-05-06T19:34:52.151Z,2.70
2023-05-06T19:37:19.585Z,4.38
2023-05-06T19:39:47.905Z,2.45
2023-05-06T19:42:16.162Z,3.90
2023-05-06T19:44:43.527Z,4.25
2023-05-06T19:47:10.988Z,1.90
2023-05-06T19:49:38.365Z,2.47
2023-05-06T19:52:05.771Z,3.05
2023-05-06T19:54:33.120Z,2.90
2023-05-06T19:57:00.979Z,4.80
2023-05-06T20:01:57.356Z,4.05
2023-05-06T20:04:43.772Z,2.22
2023-05-06T20:09:41.477Z,2.08
2023-05-06T20:12:08.903Z,2.45
2023-05-06T20:14:36.316Z,6.28
2023-05-06T20:17:03.761Z,4.05
2023-05-06T20:19:31.589Z,4.65
2023-05-06T20:21:59.754Z,3.47
2023-05-06T20:24:29.741Z,3.67
2023-05-06T20:26:59.223Z,3.95
2023-05-06T20:29:26.655Z,3.92
2023-05-06T20:31:54.246Z,3.80
2023-05-06T20:34:21.670Z,4.55
2023-05-06T20:36:50.194Z,2.67
2023-05-06T20:39:17.612Z,3.25
2023-05-06T20:41:45.088Z,3.70
2023-05-06T20:44:12.484Z,3.03
2023-05-06T20:46:39.908Z,3.05
2023-05-06T20:49:07.945Z,3.28
2023-05-06T20:51:35.371Z,3.08
2023-05-06T20:54:02.656Z,3.17
2023-05-06T20:56:29.908Z,6.53
2023-05-06T20:58:57.322Z,4.00
2023-05-06T21:01:25.845Z,6.55
